sensor_id;sensor_type;location;lat;lon;timestamp;pressure;altitude;pressure_sealevel;temperature;humidity
71043;BME280;58696;52.134;5.500;2022-09-09T00:04:15;100735.69;;;13.83;nan
71043;BME280;58696;52.134;5.500;2022-09-09T00:12:51;100733.06;;;13.81;nan
71043;BME280;58696;52.134;5.500;2022-09-09T00:15:29;100725.16;;;13.80;nan
71043;BME280;58696;52.134;5.500;2022-09-09T00:23:26;100726.06;;;13.77;nan
71043;BME280;58696;52.134;5.500;2022-09-09T00:26:02;100731.31;;;13.77;nan
71043;BME280;58696;52.134;5.500;2022-09-09T00:28:35;100732.16;;;13.76;nan
71043;BME280;58696;52.134;5.500;2022-09-09T00:31:13;100732.16;;;13.74;nan
71043;BME280;58696;52.134;5.500;2022-09-09T00:33:43;100734.78;;;13.74;nan
71043;BME280;58696;52.134;5.500;2022-09-09T00:36:13;100728.66;;;13.74;nan
71043;BME280;58696;52.134;5.500;2022-09-09T00:38:48;100728.66;;;13.71;nan
71043;BME280;58696;52.134;5.500;2022-09-09T00:44:00;100731.28;;;13.71;nan
71043;BME280;58696;52.134;5.500;2022-09-09T00:46:38;100715.50;;;13.69;nan
71043;BME280;58696;52.134;5.500;2022-09-09T00:52:08;100719.88;;;13.61;nan
71043;BME280;58696;52.134;5.500;2022-09-09T00:57:28;100723.38;;;13.57;nan
71043;BME280;58696;52.134;5.500;2022-09-09T01:00:24;100721.63;;;13.56;nan
71043;BME280;58696;52.134;5.500;2022-09-09T01:05:46;100713.69;;;13.48;nan
71043;BME280;58696;52.134;5.500;2022-09-09T01:10:50;100730.28;;;13.42;nan
71043;BME280;58696;52.134;5.500;2022-09-09T01:13:27;100722.41;;;13.39;nan
71043;BME280;58696;52.134;5.500;2022-09-09T01:15:59;100728.53;;;13.36;nan
71043;BME280;58696;52.134;5.500;2022-09-09T01:18:30;100732.91;;;13.34;nan
71043;BME280;58696;52.134;5.500;2022-09-09T01:24:13;100730.28;;;13.33;nan
71043;BME280;58696;52.134;5.500;2022-09-09T01:26:44;100730.25;;;13.30;nan
71043;BME280;58696;52.134;5.500;2022-09-09T01:29:16;100725.00;;;13.27;nan
71043;BME280;58696;52.134;5.500;2022-09-09T01:32:37;100716.25;;;13.24;nan
71043;BME280;58696;52.134;5.500;2022-09-09T01:34:50;100717.09;;;13.22;nan
71043;BME280;58696;52.134;5.500;2022-09-09T01:37:17;100707.47;;;13.19;nan
71043;BME280;58696;52.134;5.500;2022-09-09T01:39:44;100705.72;;;13.17;nan
71043;BME280;58696;52.134;5.500;2022-09-09T01:42:14;100706.59;;;13.16;nan
71043;BME280;58696;52.134;5.500;2022-09-09T01:44:50;100710.09;;;13.15;nan
71043;BME280;58696;52.134;5.500;2022-09-09T01:47:17;100710.94;;;13.12;nan
71043;BME280;58696;52.134;5.500;2022-09-09T01:49:44;100711.81;;;13.09;nan
71043;BME280;58696;52.134;5.500;2022-09-09T01:52:11;100706.53;;;13.06;nan
71043;BME280;58696;52.134;5.500;2022-09-09T01:54:37;100715.28;;;13.04;nan
71043;BME280;58696;52.134;5.500;2022-09-09T02:08:23;100708.25;;;12.98;nan
71043;BME280;58696;52.134;5.500;2022-09-09T02:10:55;100710.00;;;12.96;nan
71043;BME280;58696;52.134;5.500;2022-09-09T02:13:25;100703.00;;;12.95;nan
71043;BME280;58696;52.134;5.500;2022-09-09T02:16:03;100702.13;;;12.96;nan
71043;BME280;58696;52.134;5.500;2022-09-09T02:19:01;100691.63;;;12.93;nan
71043;BME280;58696;52.134;5.500;2022-09-09T02:21:28;100699.50;;;12.93;nan
71043;BME280;58696;52.134;5.500;2022-09-09T02:23:58;100695.97;;;12.92;nan
71043;BME280;58696;52.134;5.500;2022-09-09T02:26:27;100696.00;;;12.89;nan
71043;BME280;58696;52.134;5.500;2022-09-09T02:28:57;100688.97;;;12.90;nan
71043;BME280;58696;52.134;5.500;2022-09-09T02:31:25;100695.09;;;12.89;nan
71043;BME280;58696;52.134;5.500;2022-09-09T02:33:58;100697.72;;;12.87;nan
71043;BME280;58696;52.134;5.500;2022-09-09T02:36:31;100686.38;;;12.85;nan
71043;BME280;58696;52.134;5.500;2022-09-09T02:39:00;100686.38;;;12.85;nan
71043;BME280;58696;52.134;5.500;2022-09-09T02:41:33;100695.06;;;12.84;nan
71043;BME280;58696;52.134;5.500;2022-09-09T02:44:00;100689.81;;;12.84;nan
71043;BME280;58696;52.134;5.500;2022-09-09T02:52:15;100688.97;;;12.82;nan
71043;BME280;58696;52.134;5.500;2022-09-09T02:54:45;100691.56;;;12.79;nan
71043;BME280;58696;52.134;5.500;2022-09-09T02:57:25;100687.22;;;12.79;nan
71043;BME280;58696;52.134;5.500;2022-09-09T02:59:52;100688.06;;;12.80;nan
71043;BME280;58696;52.134;5.500;2022-09-09T03:02:19;100681.06;;;12.79;nan
71043;BME280;58696;52.134;5.500;2022-09-09T03:04:46;100682.78;;;12.77;nan
71043;BME280;58696;52.134;5.500;2022-09-09T03:07:18;100677.56;;;12.77;nan
71043;BME280;58696;52.134;5.500;2022-09-09T03:09:45;100679.28;;;12.71;nan
71043;BME280;58696;52.134;5.500;2022-09-09T03:12:12;100677.56;;;12.75;nan
71043;BME280;58696;52.134;5.500;2022-09-09T03:14:39;100679.31;;;12.74;nan
71043;BME280;58696;52.134;5.500;2022-09-09T03:17:08;100682.78;;;12.70;nan
71043;BME280;58696;52.134;5.500;2022-09-09T03:19:35;100681.88;;;12.68;nan
71043;BME280;58696;52.134;5.500;2022-09-09T03:22:02;100680.16;;;12.69;nan
71043;BME280;58696;52.134;5.500;2022-09-09T03:24:30;100679.28;;;12.65;nan
71043;BME280;58696;52.134;5.500;2022-09-09T03:26:59;100688.00;;;12.69;nan
71043;BME280;58696;52.134;5.500;2022-09-09T03:29:26;100687.13;;;12.68;nan
71043;BME280;58696;52.134;5.500;2022-09-09T03:31:53;100688.91;;;12.68;nan
71043;BME280;58696;52.134;5.500;2022-09-09T03:34:20;100673.13;;;12.65;nan
71043;BME280;58696;52.134;5.500;2022-09-09T03:36:50;100679.28;;;12.65;nan
71043;BME280;58696;52.134;5.500;2022-09-09T03:39:16;100678.38;;;12.66;nan
71043;BME280;58696;52.134;5.500;2022-09-09T03:41:43;100681.00;;;12.66;nan
71043;BME280;58696;52.134;5.500;2022-09-09T03:44:13;100684.50;;;12.65;nan
71043;BME280;58696;52.134;5.500;2022-09-09T03:46:40;100674.03;;;12.65;nan
71043;BME280;58696;52.134;5.500;2022-09-09T03:49:07;100679.25;;;12.68;nan
71043;BME280;58696;52.134;5.500;2022-09-09T03:51:36;100677.50;;;12.67;nan
71043;BME280;58696;52.134;5.500;2022-09-09T03:54:04;100682.75;;;12.67;nan
71043;BME280;58696;52.134;5.500;2022-09-09T03:56:36;100688.91;;;12.72;nan
71043;BME280;58696;52.134;5.500;2022-09-09T03:59:03;100674.06;;;12.74;nan
71043;BME280;58696;52.134;5.500;2022-09-09T04:01:30;100666.22;;;12.78;nan
71043;BME280;58696;52.134;5.500;2022-09-09T04:03:57;100676.72;;;12.78;nan
71043;BME280;58696;52.134;5.500;2022-09-09T04:06:24;100675.81;;;12.79;nan
71043;BME280;58696;52.134;5.500;2022-09-09T04:08:52;100674.94;;;12.78;nan
71043;BME280;58696;52.134;5.500;2022-09-09T04:11:19;100672.31;;;12.80;nan
71043;BME280;58696;52.134;5.500;2022-09-09T04:13:46;100670.59;;;12.79;nan
71043;BME280;58696;52.134;5.500;2022-09-09T04:16:13;100667.06;;;12.78;nan
71043;BME280;58696;52.134;5.500;2022-09-09T04:18:42;100667.97;;;12.79;nan
71043;BME280;58696;52.134;5.500;2022-09-09T04:21:09;100676.72;;;12.79;nan
71043;BME280;58696;52.134;5.500;2022-09-09T04:23:39;100671.47;;;12.78;nan
71043;BME280;58696;52.134;5.500;2022-09-09T04:26:06;100672.31;;;12.80;nan
71043;BME280;58696;52.134;5.500;2022-09-09T04:28:35;100660.09;;;12.79;nan
71043;BME280;58696;52.134;5.500;2022-09-09T04:31:07;100669.69;;;12.78;nan
71043;BME280;58696;52.134;5.500;2022-09-09T04:33:37;100667.97;;;12.80;nan
71043;BME280;58696;52.134;5.500;2022-09-09T04:36:06;100659.22;;;12.80;nan
71043;BME280;58696;52.134;5.500;2022-09-09T04:38:33;100669.69;;;12.78;nan
71043;BME280;58696;52.134;5.500;2022-09-09T04:40:59;100661.81;;;12.77;nan
71043;BME280;58696;52.134;5.500;2022-09-09T04:43:26;100670.59;;;12.79;nan
71043;BME280;58696;52.134;5.500;2022-09-09T04:45:53;100664.47;;;12.81;nan
71043;BME280;58696;52.134;5.500;2022-09-09T04:48:23;100656.63;;;12.83;nan
71043;BME280;58696;52.134;5.500;2022-09-09T04:50:55;100662.72;;;12.86;nan
71043;BME280;58696;52.134;5.500;2022-09-09T04:53:22;100655.78;;;12.90;nan
71043;BME280;58696;52.134;5.500;2022-09-09T04:55:49;100650.53;;;12.93;nan
71043;BME280;58696;52.134;5.500;2022-09-09T04:58:16;100651.41;;;12.95;nan
71043;BME280;58696;52.134;5.500;2022-09-09T05:00:45;100649.66;;;12.94;nan
71043;BME280;58696;52.134;5.500;2022-09-09T05:03:12;100648.78;;;12.95;nan
71043;BME280;58696;52.134;5.500;2022-09-09T05:05:39;100652.31;;;12.96;nan
71043;BME280;58696;52.134;5.500;2022-09-09T05:08:07;100654.03;;;12.97;nan
71043;BME280;58696;52.134;5.500;2022-09-09T05:10:38;100653.16;;;12.96;nan
71043;BME280;58696;52.134;5.500;2022-09-09T05:13:05;100655.78;;;12.96;nan
71043;BME280;58696;52.134;5.500;2022-09-09T05:15:32;100660.19;;;12.97;nan
71043;BME280;58696;52.134;5.500;2022-09-09T05:18:00;100653.16;;;12.96;nan
71043;BME280;58696;52.134;5.500;2022-09-09T05:20:28;100654.03;;;12.95;nan
71043;BME280;58696;52.134;5.500;2022-09-09T05:22:55;100646.16;;;12.95;nan
71043;BME280;58696;52.134;5.500;2022-09-09T05:25:23;100654.03;;;12.95;nan
71043;BME280;58696;52.134;5.500;2022-09-09T05:27:53;100653.16;;;12.96;nan
71043;BME280;58696;52.134;5.500;2022-09-09T05:30:21;100652.31;;;12.96;nan
71043;BME280;58696;52.134;5.500;2022-09-09T05:32:51;100642.69;;;12.93;nan
71043;BME280;58696;52.134;5.500;2022-09-09T05:35:18;100643.53;;;12.94;nan
71043;BME280;58696;52.134;5.500;2022-09-09T05:37:45;100649.69;;;12.97;nan
71043;BME280;58696;52.134;5.500;2022-09-09T05:40:19;100640.03;;;12.98;nan
71043;BME280;58696;52.134;5.500;2022-09-09T05:42:49;100640.06;;;12.99;nan
71043;BME280;58696;52.134;5.500;2022-09-09T05:45:19;100640.94;;;13.02;nan
71043;BME280;58696;52.134;5.500;2022-09-09T05:47:51;100637.47;;;13.07;nan
71043;BME280;58696;52.134;5.500;2022-09-09T05:50:19;100638.34;;;13.11;nan
71043;BME280;58696;52.134;5.500;2022-09-09T05:52:48;100634.84;;;13.13;nan
71043;BME280;58696;52.134;5.500;2022-09-09T05:55:16;100637.47;;;13.15;nan
71043;BME280;58696;52.134;5.500;2022-09-09T05:57:48;100634.00;;;13.19;nan
71043;BME280;58696;52.134;5.500;2022-09-09T06:00:14;100635.75;;;13.23;nan
71043;BME280;58696;52.134;5.500;2022-09-09T06:02:42;100634.88;;;13.29;nan
71043;BME280;58696;52.134;5.500;2022-09-09T06:05:10;100646.28;;;13.34;nan
71043;BME280;58696;52.134;5.500;2022-09-09T06:07:37;100647.19;;;13.41;nan
71043;BME280;58696;52.134;5.500;2022-09-09T06:10:04;100644.56;;;13.43;nan
71043;BME280;58696;52.134;5.500;2022-09-09T06:12:31;100641.94;;;13.46;nan
71043;BME280;58696;52.134;5.500;2022-09-09T06:14:58;100647.22;;;13.55;nan
71043;BME280;58696;52.134;5.500;2022-09-09T06:17:29;100648.09;;;13.59;nan
71043;BME280;58696;52.134;5.500;2022-09-09T06:19:56;100656.88;;;13.67;nan
71043;BME280;58696;52.134;5.500;2022-09-09T06:22:23;100642.84;;;13.73;nan
71043;BME280;58696;52.134;5.500;2022-09-09T06:24:49;100654.22;;;13.84;nan
71043;BME280;58696;52.134;5.500;2022-09-09T06:27:17;100637.59;;;13.90;nan
71043;BME280;58696;52.134;5.500;2022-09-09T06:29:46;100645.50;;;13.99;nan
71043;BME280;58696;52.134;5.500;2022-09-09T06:32:12;100634.09;;;14.07;nan
71043;BME280;58696;52.134;5.500;2022-09-09T06:34:39;100634.97;;;14.09;nan
71043;BME280;58696;52.134;5.500;2022-09-09T06:37:06;100640.22;;;14.15;nan
71043;BME280;58696;52.134;5.500;2022-09-09T06:39:32;100638.44;;;14.19;nan
71043;BME280;58696;52.134;5.500;2022-09-09T06:41:59;100635.81;;;14.23;nan
71043;BME280;58696;52.134;5.500;2022-09-09T06:44:28;100634.06;;;14.32;nan
71043;BME280;58696;52.134;5.500;2022-09-09T06:47:00;100634.91;;;14.41;nan
71043;BME280;58696;52.134;5.500;2022-09-09T06:49:27;100641.00;;;14.56;nan
71043;BME280;58696;52.134;5.500;2022-09-09T06:51:54;100637.44;;;14.73;nan
71043;BME280;58696;52.134;5.500;2022-09-09T06:54:20;100643.56;;;14.90;nan
71043;BME280;58696;52.134;5.500;2022-09-09T06:56:48;100642.59;;;15.01;nan
71043;BME280;58696;52.134;5.500;2022-09-09T06:59:15;100635.53;;;15.12;nan
71043;BME280;58696;52.134;5.500;2022-09-09T07:01:42;100639.88;;;15.20;nan
71043;BME280;58696;52.134;5.500;2022-09-09T07:04:21;100646.84;;;15.28;nan
71043;BME280;58696;52.134;5.500;2022-09-09T07:06:47;100633.66;;;15.33;nan
71043;BME280;58696;52.134;5.500;2022-09-09T07:09:15;100636.25;;;15.36;nan
71043;BME280;58696;52.134;5.500;2022-09-09T07:11:48;100645.06;;;15.37;nan
71043;BME280;58696;52.134;5.500;2022-09-09T07:14:15;100639.72;;;15.44;nan
71043;BME280;58696;52.134;5.500;2022-09-09T07:16:43;100647.59;;;15.49;nan
71043;BME280;58696;52.134;5.500;2022-09-09T07:19:12;100637.94;;;15.50;nan
71043;BME280;58696;52.134;5.500;2022-09-09T07:21:39;100643.16;;;15.53;nan
71043;BME280;58696;52.134;5.500;2022-09-09T07:24:06;100645.78;;;15.57;nan
71043;BME280;58696;52.134;5.500;2022-09-09T07:26:38;100643.97;;;15.63;nan
71043;BME280;58696;52.134;5.500;2022-09-09T07:29:05;100640.50;;;15.61;nan
71043;BME280;58696;52.134;5.500;2022-09-09T07:31:34;100642.25;;;15.59;nan
71043;BME280;58696;52.134;5.500;2022-09-09T07:34:04;100643.13;;;15.59;nan
71043;BME280;58696;52.134;5.500;2022-09-09T07:36:35;100646.69;;;15.53;nan
71043;BME280;58696;52.134;5.500;2022-09-09T07:39:06;100645.84;;;15.51;nan
71043;BME280;58696;52.134;5.500;2022-09-09T07:41:35;100646.72;;;15.49;nan
71043;BME280;58696;52.134;5.500;2022-09-09T07:44:08;100649.34;;;15.49;nan
71043;BME280;58696;52.134;5.500;2022-09-09T07:46:35;100654.59;;;15.50;nan
71043;BME280;58696;52.134;5.500;2022-09-09T07:49:05;100650.16;;;15.59;nan
71043;BME280;58696;52.134;5.500;2022-09-09T07:51:36;100648.31;;;15.72;nan
71043;BME280;58696;52.134;5.500;2022-09-09T07:54:05;100647.88;;;16.26;nan
71043;BME280;58696;52.134;5.500;2022-09-09T07:56:34;100639.34;;;16.79;nan
71043;BME280;58696;52.134;5.500;2022-09-09T07:59:00;100639.88;;;17.11;nan
71043;BME280;58696;52.134;5.500;2022-09-09T08:01:33;100641.81;;;17.59;nan
71043;BME280;58696;52.134;5.500;2022-09-09T08:04:04;100640.56;;;17.82;nan
71043;BME280;58696;52.134;5.500;2022-09-09T08:06:35;100638.47;;;18.02;nan
71043;BME280;58696;52.134;5.500;2022-09-09T08:09:05;100637.09;;;17.77;nan
71043;BME280;58696;52.134;5.500;2022-09-09T08:11:32;100641.19;;;17.40;nan
71043;BME280;58696;52.134;5.500;2022-09-09T08:14:05;100652.38;;;16.93;nan
71043;BME280;58696;52.134;5.500;2022-09-09T08:16:36;100647.53;;;16.59;nan
71043;BME280;58696;52.134;5.500;2022-09-09T08:19:04;100651.28;;;16.38;nan
71043;BME280;58696;52.134;5.500;2022-09-09T08:21:35;100654.00;;;16.25;nan
71043;BME280;58696;52.134;5.500;2022-09-09T08:24:03;100656.72;;;16.20;nan
71043;BME280;58696;52.134;5.500;2022-09-09T08:26:36;100653.22;;;16.15;nan
71043;BME280;58696;52.134;5.500;2022-09-09T08:29:05;100676.13;;;16.13;nan
71043;BME280;58696;52.134;5.500;2022-09-09T08:31:35;100666.47;;;16.11;nan
71043;BME280;58696;52.134;5.500;2022-09-09T08:34:06;100662.94;;;16.12;nan
71043;BME280;58696;52.134;5.500;2022-09-09T08:36:35;100666.50;;;16.07;nan
71043;BME280;58696;52.134;5.500;2022-09-09T08:39:04;100666.56;;;16.00;nan
71043;BME280;58696;52.134;5.500;2022-09-09T08:47:55;100671.97;;;15.82;nan
71043;BME280;58696;52.134;5.500;2022-09-09T08:50:30;100664.91;;;15.80;nan
71043;BME280;58696;52.134;5.500;2022-09-09T08:55:56;100672.75;;;15.91;nan
71043;BME280;58696;52.134;5.500;2022-09-09T08:58:30;100678.03;;;15.91;nan
71043;BME280;58696;52.134;5.500;2022-09-09T09:04:00;100675.38;;;15.95;nan
71043;BME280;58696;52.134;5.500;2022-09-09T09:11:40;100692.91;;;16.01;nan
71043;BME280;58696;52.134;5.500;2022-09-09T09:14:36;100683.25;;;16.02;nan
71043;BME280;58696;52.134;5.500;2022-09-09T09:17:11;100684.13;;;16.02;nan
71043;BME280;58696;52.134;5.500;2022-09-09T09:19:40;100687.63;;;16.01;nan
71043;BME280;58696;52.134;5.500;2022-09-09T09:22:16;100691.16;;;16.00;nan
71043;BME280;58696;52.134;5.500;2022-09-09T09:30:23;100693.81;;;15.94;nan
71043;BME280;58696;52.134;5.500;2022-09-09T09:32:59;100689.44;;;15.93;nan
71043;BME280;58696;52.134;5.500;2022-09-09T09:35:27;100692.06;;;15.93;nan
71043;BME280;58696;52.134;5.500;2022-09-09T09:37:54;100694.72;;;15.96;nan
71043;BME280;58696;52.134;5.500;2022-09-09T09:40:51;100690.28;;;16.00;nan
71043;BME280;58696;52.134;5.500;2022-09-09T09:43:24;100690.25;;;16.01;nan
71043;BME280;58696;52.134;5.500;2022-09-09T09:45:52;100684.16;;;15.99;nan
71043;BME280;58696;52.134;5.500;2022-09-09T09:48:39;100688.50;;;16.02;nan
71043;BME280;58696;52.134;5.500;2022-09-09T09:51:14;100688.47;;;16.06;nan
71043;BME280;58696;52.134;5.500;2022-09-09T09:53:43;100684.03;;;16.12;nan
71043;BME280;58696;52.134;5.500;2022-09-09T09:56:13;100685.72;;;16.19;nan
71043;BME280;58696;52.134;5.500;2022-09-09T10:01:22;100678.59;;;16.30;nan
71043;BME280;58696;52.134;5.500;2022-09-09T10:03:57;100689.16;;;16.30;nan
71043;BME280;58696;52.134;5.500;2022-09-09T10:06:36;100687.41;;;16.28;nan
71043;BME280;58696;52.134;5.500;2022-09-09T10:09:24;100679.44;;;16.32;nan
71043;BME280;58696;52.134;5.500;2022-09-09T10:12:28;100681.13;;;16.38;nan
71043;BME280;58696;52.134;5.500;2022-09-09T10:21:02;100680.28;;;16.38;nan
71043;BME280;58696;52.134;5.500;2022-09-09T10:23:51;100679.41;;;16.37;nan
71043;BME280;58696;52.134;5.500;2022-09-09T10:26:29;100680.28;;;16.38;nan
71043;BME280;58696;52.134;5.500;2022-09-09T10:39:55;100694.47;;;16.24;nan
71043;BME280;58696;52.134;5.500;2022-09-09T10:42:31;100703.38;;;16.11;nan
71043;BME280;58696;52.134;5.500;2022-09-09T10:45:17;100690.34;;;15.95;nan
71043;BME280;58696;52.134;5.500;2022-09-09T10:48:20;100703.50;;;15.89;nan
71043;BME280;58696;52.134;5.500;2022-09-09T10:51:11;100705.31;;;15.84;nan
71043;BME280;58696;52.134;5.500;2022-09-09T10:56:16;100692.16;;;15.80;nan
71043;BME280;58696;52.134;5.500;2022-09-09T11:03:51;100695.47;;;16.12;nan
71043;BME280;58696;52.134;5.500;2022-09-09T11:06:22;100687.34;;;16.31;nan
71043;BME280;58696;52.134;5.500;2022-09-09T11:08:51;100687.91;;;16.66;nan
71043;BME280;58696;52.134;5.500;2022-09-09T11:11:29;100683.97;;;17.01;nan
71043;BME280;58696;52.134;5.500;2022-09-09T11:14:05;100674.00;;;17.25;nan
71043;BME280;58696;52.134;5.500;2022-09-09T11:19:14;100683.22;;;17.59;nan
71043;BME280;58696;52.134;5.500;2022-09-09T11:21:47;100690.63;;;17.92;nan
71043;BME280;58696;52.134;5.500;2022-09-09T11:24:29;100678.88;;;18.08;nan
71043;BME280;58696;52.134;5.500;2022-09-09T11:27:08;100681.66;;;18.02;nan
71043;BME280;58696;52.134;5.500;2022-09-09T11:30:03;100664.53;;;17.70;nan
71043;BME280;58696;52.134;5.500;2022-09-09T11:38:29;100670.50;;;17.23;nan
71043;BME280;58696;52.134;5.500;2022-09-09T11:41:06;100686.44;;;17.17;nan
71043;BME280;58696;52.134;5.500;2022-09-09T11:43:42;100677.56;;;17.24;nan
71043;BME280;58696;52.134;5.500;2022-09-09T11:46:12;100673.81;;;17.38;nan
71043;BME280;58696;52.134;5.500;2022-09-09T11:48:42;100668.47;;;17.44;nan
71043;BME280;58696;52.134;5.500;2022-09-09T11:53:52;100666.97;;;17.24;nan
71043;BME280;58696;52.134;5.500;2022-09-09T11:56:45;100667.09;;;17.15;nan
71043;BME280;58696;52.134;5.500;2022-09-09T11:59:31;100661.84;;;17.12;nan
71043;BME280;58696;52.134;5.500;2022-09-09T12:05:09;100659.34;;;16.99;nan
71043;BME280;58696;52.134;5.500;2022-09-09T12:07:41;100659.34;;;16.97;nan
71043;BME280;58696;52.134;5.500;2022-09-09T12:10:40;100658.56;;;16.91;nan
71043;BME280;58696;52.134;5.500;2022-09-09T12:13:24;100664.78;;;16.88;nan
71043;BME280;58696;52.134;5.500;2022-09-09T12:15:58;100658.63;;;16.86;nan
71043;BME280;58696;52.134;5.500;2022-09-09T12:21:06;100676.44;;;16.68;nan
71043;BME280;58696;52.134;5.500;2022-09-09T12:23:40;100666.06;;;16.51;nan
71043;BME280;58696;52.134;5.500;2022-09-09T12:29:13;100670.72;;;16.26;nan
71043;BME280;58696;52.134;5.500;2022-09-09T12:31:47;100672.56;;;16.17;nan
71043;BME280;58696;52.134;5.500;2022-09-09T12:36:57;100675.19;;;16.20;nan
71043;BME280;58696;52.134;5.500;2022-09-09T12:39:33;100673.38;;;16.21;nan
71043;BME280;58696;52.134;5.500;2022-09-09T12:42:02;100667.25;;;16.24;nan
71043;BME280;58696;52.134;5.500;2022-09-09T12:44:30;100674.16;;;16.32;nan
71043;BME280;58696;52.134;5.500;2022-09-09T12:47:01;100671.47;;;16.39;nan
71043;BME280;58696;52.134;5.500;2022-09-09T12:49:37;100664.25;;;16.56;nan
71043;BME280;58696;52.134;5.500;2022-09-09T12:52:08;100665.75;;;16.79;nan
71043;BME280;58696;52.134;5.500;2022-09-09T12:54:36;100654.22;;;16.87;nan
71043;BME280;58696;52.134;5.500;2022-09-09T12:57:04;100655.97;;;16.86;nan
71043;BME280;58696;52.134;5.500;2022-09-09T12:59:37;100649.88;;;16.82;nan
71043;BME280;58696;52.134;5.500;2022-09-09T13:02:22;100650.00;;;16.73;nan
71043;BME280;58696;52.134;5.500;2022-09-09T13:04:50;100648.28;;;16.69;nan
71043;BME280;58696;52.134;5.500;2022-09-09T13:07:20;100654.38;;;16.74;nan
71043;BME280;58696;52.134;5.500;2022-09-09T13:09:48;100660.41;;;16.84;nan
71043;BME280;58696;52.134;5.500;2022-09-09T13:12:21;100652.47;;;16.89;nan
71043;BME280;58696;52.134;5.500;2022-09-09T13:14:53;100660.31;;;16.92;nan
71043;BME280;58696;52.134;5.500;2022-09-09T13:17:26;100663.81;;;16.94;nan
71043;BME280;58696;52.134;5.500;2022-09-09T13:19:55;100653.25;;;16.95;nan
71043;BME280;58696;52.134;5.500;2022-09-09T13:25:04;100658.69;;;16.81;nan
71043;BME280;58696;52.134;5.500;2022-09-09T13:27:33;100661.44;;;16.72;nan
71043;BME280;58696;52.134;5.500;2022-09-09T13:30:01;100658.88;;;16.66;nan
71043;BME280;58696;52.134;5.500;2022-09-09T13:32:28;100654.47;;;16.66;nan
71043;BME280;58696;52.134;5.500;2022-09-09T13:35:00;100650.94;;;16.69;nan
71043;BME280;58696;52.134;5.500;2022-09-09T13:40:00;100647.22;;;16.84;nan
71043;BME280;58696;52.134;5.500;2022-09-09T13:42:31;100647.97;;;16.94;nan
71043;BME280;58696;52.134;5.500;2022-09-09T13:44:59;100647.91;;;17.00;nan
71043;BME280;58696;52.134;5.500;2022-09-09T13:47:38;100647.91;;;17.00;nan
71043;BME280;58696;52.134;5.500;2022-09-09T13:50:25;100651.47;;;16.96;nan
71043;BME280;58696;52.134;5.500;2022-09-09T13:52:57;100634.78;;;16.94;nan
71043;BME280;58696;52.134;5.500;2022-09-09T13:55:28;100648.81;;;16.97;nan
71043;BME280;58696;52.134;5.500;2022-09-09T13:57:57;100642.63;;;17.00;nan
71043;BME280;58696;52.134;5.500;2022-09-09T14:00:24;100645.28;;;17.00;nan
71043;BME280;58696;52.134;5.500;2022-09-09T14:02:51;100647.03;;;17.00;nan
71043;BME280;58696;52.134;5.500;2022-09-09T14:05:18;100643.50;;;16.99;nan
71043;BME280;58696;52.134;5.500;2022-09-09T14:07:45;100637.38;;;16.98;nan
71043;BME280;58696;52.134;5.500;2022-09-09T14:10:15;100642.63;;;17.00;nan
71043;BME280;58696;52.134;5.500;2022-09-09T14:12:43;100640.00;;;17.00;nan
71043;BME280;58696;52.134;5.500;2022-09-09T14:15:11;100646.97;;;17.04;nan
71043;BME280;58696;52.134;5.500;2022-09-09T14:17:38;100638.16;;;17.07;nan
71043;BME280;58696;52.134;5.500;2022-09-09T14:20:06;100631.94;;;17.11;nan
71043;BME280;58696;52.134;5.500;2022-09-09T14:22:36;100631.81;;;17.19;nan
71043;BME280;58696;52.134;5.500;2022-09-09T14:25:03;100633.50;;;17.26;nan
71043;BME280;58696;52.134;5.500;2022-09-09T14:27:32;100627.25;;;17.32;nan
71043;BME280;58696;52.134;5.500;2022-09-09T14:30:05;100628.97;;;17.33;nan
71043;BME280;58696;52.134;5.500;2022-09-09T14:32:32;100633.31;;;17.37;nan
71043;BME280;58696;52.134;5.500;2022-09-09T14:34:59;100631.53;;;17.41;nan
71043;BME280;58696;52.134;5.500;2022-09-09T14:37:27;100633.25;;;17.42;nan
71043;BME280;58696;52.134;5.500;2022-09-09T14:39:53;100636.81;;;17.41;nan
71043;BME280;58696;52.134;5.500;2022-09-09T14:42:20;100629.78;;;17.40;nan
71043;BME280;58696;52.134;5.500;2022-09-09T14:44:48;100624.53;;;17.38;nan
71043;BME280;58696;52.134;5.500;2022-09-09T14:47:14;100623.63;;;17.38;nan
71043;BME280;58696;52.134;5.500;2022-09-09T14:49:41;100625.34;;;17.40;nan
71043;BME280;58696;52.134;5.500;2022-09-09T14:52:10;100615.69;;;17.39;nan
71043;BME280;58696;52.134;5.500;2022-09-09T14:54:37;100613.94;;;17.40;nan
71043;BME280;58696;52.134;5.500;2022-09-09T14:57:04;100613.03;;;17.41;nan
71043;BME280;58696;52.134;5.500;2022-09-09T14:59:32;100615.69;;;17.39;nan
71043;BME280;58696;52.134;5.500;2022-09-09T15:02:08;100610.44;;;17.38;nan
71043;BME280;58696;52.134;5.500;2022-09-09T15:04:37;100614.00;;;17.33;nan
71043;BME280;58696;52.134;5.500;2022-09-09T15:07:03;100614.97;;;17.29;nan
71043;BME280;58696;52.134;5.500;2022-09-09T15:09:30;100618.50;;;17.28;nan
71043;BME280;58696;52.134;5.500;2022-09-09T15:11:57;100606.41;;;17.12;nan
71043;BME280;58696;52.134;5.500;2022-09-09T15:14:23;100610.22;;;16.89;nan
71043;BME280;58696;52.134;5.500;2022-09-09T15:16:51;100620.03;;;16.77;nan
71043;BME280;58696;52.134;5.500;2022-09-09T15:19:18;100625.41;;;16.68;nan
71043;BME280;58696;52.134;5.500;2022-09-09T15:21:47;100627.25;;;16.63;nan
71043;BME280;58696;52.134;5.500;2022-09-09T15:24:14;100633.41;;;16.63;nan
71043;BME280;58696;52.134;5.500;2022-09-09T15:26:46;100635.06;;;16.70;nan
71043;BME280;58696;52.134;5.500;2022-09-09T15:29:12;100639.31;;;16.82;nan
71043;BME280;58696;52.134;5.500;2022-09-09T15:31:39;100641.91;;;16.89;nan
71043;BME280;58696;52.134;5.500;2022-09-09T15:34:07;100652.38;;;16.92;nan
71043;BME280;58696;52.134;5.500;2022-09-09T15:36:41;100649.75;;;16.92;nan